Time;durP1;ratioP1;P1;durP2;ratioP2;P2;SDS_P1;SDS_P2;PMS_P1;PMS_P2;Temp;Humidity;BMP_temperature;BMP_pressure;BME280_temperature;BME280_humidity;BME280_pressure;Samples;Min_cycle;Max_cycle;Signal;HPM_P1;HPM_P2
2020/12/30 00:02:27;;;;;;;1.92;1.50;;;;;;;22.79;31.10;99551.03;5008282;28;97566;-53
2020/12/30 00:04:52;;;;;;;1.80;1.48;;;;;;;22.79;31.23;99549.22;4980354;28;97601;-53
2020/12/30 00:07:18;;;;;;;2.55;1.92;;;;;;;22.80;31.10;99550.09;5010030;28;113832;-53
2020/12/30 00:09:43;;;;;;;2.22;1.42;;;;;;;22.80;31.07;99544.78;5009073;28;109960;-53
2020/12/30 00:12:09;;;;;;;2.30;1.60;;;;;;;22.79;30.98;99543.91;4989463;28;96848;-53
2020/12/30 00:14:34;;;;;;;1.70;1.50;;;;;;;22.80;30.86;99542.13;5006683;28;97428;-53
2020/12/30 00:17:00;;;;;;;2.10;1.90;;;;;;;22.80;31.31;99542.97;5010969;28;119609;-53
2020/12/30 00:19:27;;;;;;;2.63;1.90;;;;;;;22.81;31.26;99543.81;4977950;28;111783;-53
2020/12/30 00:21:52;;;;;;;1.90;1.70;;;;;;;22.81;31.22;99549.13;4991824;28;111546;-53
2020/12/30 00:24:18;;;;;;;2.10;1.58;;;;;;;22.80;31.03;99548.28;5012075;28;97529;-53
2020/12/30 00:26:43;;;;;;;1.75;1.52;;;;;;;22.81;30.86;99546.47;5014271;28;126598;-53
2020/12/30 00:29:09;;;;;;;1.85;1.60;;;;;;;22.80;31.01;99542.97;5009177;28;105778;-54
2020/12/30 00:31:34;;;;;;;2.10;1.55;;;;;;;22.81;30.92;99544.66;5009889;28;103744;-54
2020/12/30 00:34:00;;;;;;;2.85;1.90;;;;;;;22.80;30.94;99540.31;4994311;28;106143;-53
2020/12/30 00:36:26;;;;;;;1.83;1.58;;;;;;;22.82;31.12;99550.88;5008348;28;126652;-53
2020/12/30 00:38:52;;;;;;;1.67;1.50;;;;;;;22.83;30.87;99546.38;5007241;28;96836;-53
2020/12/30 00:41:17;;;;;;;2.28;1.60;;;;;;;22.81;31.11;99555.28;5009510;28;112763;-53
2020/12/30 00:43:43;;;;;;;2.65;1.80;;;;;;;22.81;30.96;99552.63;5014536;28;97519;-53
2020/12/30 00:46:16;;;;;;;1.90;1.65;;;;;;;22.81;30.85;99547.31;5011413;28;126580;-53
2020/12/30 00:48:42;;;;;;;2.08;1.55;;;;;;;22.83;31.23;99552.56;4996318;28;97568;-54
2020/12/30 00:51:12;;;;;;;2.17;1.90;;;;;;;22.83;31.11;99554.38;4991485;28;96900;-53
2020/12/30 00:53:37;;;;;;;2.55;1.70;;;;;;;22.83;31.00;99562.34;5009492;28;97492;-53
2020/12/30 00:56:06;;;;;;;2.30;1.83;;;;;;;22.83;31.11;99559.69;5007389;28;97483;-53
2020/12/30 00:58:32;;;;;;;2.13;1.92;;;;;;;22.84;31.17;99561.41;5012892;28;96685;-53
2020/12/30 01:00:58;;;;;;;2.22;1.50;;;;;;;22.84;30.78;99569.38;4987263;28;96923;-53
2020/12/30 01:03:29;;;;;;;2.00;1.80;;;;;;;22.84;30.99;99572.88;5001381;28;97363;-53
2020/12/30 01:05:56;;;;;;;1.73;1.55;;;;;;;22.85;30.97;99576.41;5013758;28;97221;-53
2020/12/30 01:08:22;;;;;;;1.73;1.50;;;;;;;22.85;31.15;99571.94;4981502;28;97252;-53
2020/12/30 01:10:47;;;;;;;2.28;1.60;;;;;;;22.85;30.65;99587.03;5011119;28;98018;-53
2020/12/30 01:13:13;;;;;;;2.13;1.88;;;;;;;22.85;31.10;99587.88;5007046;28;115707;-53
2020/12/30 01:15:38;;;;;;;1.95;1.58;;;;;;;22.86;30.82;99583.44;4978648;28;97295;-53
2020/12/30 01:18:04;;;;;;;2.80;1.60;;;;;;;22.85;30.93;99587.88;4992458;28;96967;-53
2020/12/30 01:20:29;;;;;;;2.15;1.75;;;;;;;22.85;30.84;99587.03;5011390;28;96956;-53
2020/12/30 01:22:56;;;;;;;2.35;1.70;;;;;;;22.86;30.64;99584.28;4995418;28;127223;-54
2020/12/30 01:25:21;;;;;;;1.98;1.70;;;;;;;22.86;31.04;99591.41;4996257;28;126767;-54
2020/12/30 01:27:47;;;;;;;1.58;1.40;;;;;;;22.86;30.70;99588.75;4994544;28;96888;-54
2020/12/30 01:30:12;;;;;;;1.60;1.40;;;;;;;22.86;30.53;99592.25;5011936;28;112806;-54
2020/12/30 01:32:37;;;;;;;1.95;1.52;;;;;;;22.87;30.56;99595.75;5010466;28;107455;-53
2020/12/30 01:35:03;;;;;;;1.48;1.38;;;;;;;22.86;30.94;99602.91;5009298;28;97261;-53
2020/12/30 01:37:28;;;;;;;2.30;1.60;;;;;;;22.87;30.66;99603.75;5011679;28;97825;-53
2020/12/30 01:39:54;;;;;;;2.40;1.67;;;;;;;22.86;30.69;99605.56;5011318;28;111719;-53
2020/12/30 01:42:19;;;;;;;2.05;1.70;;;;;;;22.86;30.60;99608.22;5011608;28;97400;-53
2020/12/30 01:44:45;;;;;;;2.17;1.63;;;;;;;22.86;30.56;99607.38;5008983;28;106466;-53
2020/12/30 01:47:11;;;;;;;2.00;1.73;;;;;;;22.86;30.43;99605.56;5013587;28;111979;-53
2020/12/30 01:49:37;;;;;;;2.50;1.65;;;;;;;22.85;30.48;99606.50;4992762;28;96975;-53
2020/12/30 01:52:02;;;;;;;1.95;1.50;;;;;;;22.86;30.53;99602.91;5016264;28;127433;-53
2020/12/30 01:54:28;;;;;;;1.45;1.30;;;;;;;22.86;30.63;99610.03;5011889;28;97157;-54
2020/12/30 01:56:54;;;;;;;1.83;1.55;;;;;;;22.86;30.58;99607.38;5009790;28;96666;-54
2020/12/30 01:59:19;;;;;;;1.73;1.55;;;;;;;22.86;30.82;99610.88;4985573;28;96767;-54
2020/12/30 02:01:53;;;;;;;1.88;1.50;;;;;;;22.85;30.70;99613.63;5017231;28;97552;-54
2020/12/30 02:04:24;;;;;;;2.10;1.63;;;;;;;22.86;30.44;99613.53;5017115;28;97229;-53
2020/12/30 02:06:49;;;;;;;1.85;1.60;;;;;;;22.86;30.75;99613.53;5015728;28;96617;-53
2020/12/30 02:09:15;;;;;;;1.85;1.50;;;;;;;22.85;30.42;99611.81;4982848;28;111840;-53
2020/12/30 02:11:40;;;;;;;1.83;1.55;;;;;;;22.86;30.59;99615.34;5014431;28;97684;-53
2020/12/30 02:14:12;;;;;;;1.63;1.42;;;;;;;22.86;30.21;99623.31;5015593;28;126577;-54
2020/12/30 02:16:53;;;;;;;1.90;1.60;;;;;;;22.83;30.53;99619.00;5012982;28;96946;-54
2020/12/30 02:19:19;;;;;;;2.17;1.77;;;;;;;22.86;30.34;99618.84;5014148;28;96823;-54
2020/12/30 02:21:45;;;;;;;2.25;1.60;;;;;;;22.85;30.63;99625.09;5006502;28;125364;-54
2020/12/30 02:24:28;;;;;;;1.70;1.50;;;;;;;22.83;30.61;99621.69;5007654;28;96719;-53
2020/12/30 02:26:54;;;;;;;1.98;1.50;;;;;;;22.84;30.59;99620.75;5005023;28;98315;-54
2020/12/30 02:29:20;;;;;;;2.15;1.75;;;;;;;22.84;30.71;99623.41;5005929;28;97165;-54
2020/12/30 02:31:45;;;;;;;1.70;1.50;;;;;;;22.85;30.44;99621.59;5012857;28;110519;-55
2020/12/30 02:34:11;;;;;;;2.20;1.65;;;;;;;22.85;30.72;99622.44;5009804;28;126334;-54
2020/12/30 02:36:36;;;;;;;1.52;1.40;;;;;;;22.85;30.42;99627.75;5012402;28;112005;-54
2020/12/30 02:39:02;;;;;;;1.70;1.60;;;;;;;22.86;30.58;99625.97;5006064;28;96831;-54
2020/12/30 02:41:28;;;;;;;2.00;1.50;;;;;;;22.87;30.57;99625.00;4997944;28;96703;-54
2020/12/30 02:43:53;;;;;;;1.92;1.50;;;;;;;22.87;30.56;99627.66;4991973;28;126744;-54
2020/12/30 02:46:19;;;;;;;1.90;1.70;;;;;;;22.87;30.47;99633.00;4979262;28;107966;-54
2020/12/30 02:48:44;;;;;;;1.88;1.52;;;;;;;22.87;30.26;99636.53;5012944;28;111745;-53
2020/12/30 02:51:10;;;;;;;1.85;1.65;;;;;;;22.87;30.49;99633.88;5009755;28;125783;-53
2020/12/30 02:53:35;;;;;;;1.88;1.58;;;;;;;22.87;30.35;99636.53;4970798;28;97595;-53
2020/12/30 02:56:01;;;;;;;3.20;2.97;;;;;;;22.87;30.35;99633.88;5035025;22;97315;-54
2020/12/30 02:58:26;;;;;;;2.00;1.60;;;;;;;22.88;30.47;99642.69;5013390;28;111564;-54
2020/12/30 03:00:52;;;;;;;1.90;1.45;;;;;;;22.87;30.28;99641.84;5015805;28;97504;-53
2020/12/30 03:03:17;;;;;;;1.92;1.52;;;;;;;22.87;30.51;99641.84;5013689;28;100656;-54
2020/12/30 03:05:43;;;;;;;2.00;1.40;;;;;;;22.88;30.13;99632.91;5014566;28;112901;-53
2020/12/30 03:08:08;;;;;;;1.88;1.40;;;;;;;22.88;30.28;99635.56;5014769;28;113106;-54
2020/12/30 03:10:33;;;;;;;1.40;1.30;;;;;;;22.88;30.56;99640.88;5015827;28;97250;-53
2020/12/30 03:12:59;;;;;;;1.50;1.35;;;;;;;22.88;30.23;99646.19;5012520;28;124088;-54
2020/12/30 03:15:24;;;;;;;1.83;1.40;;;;;;;22.88;30.11;99646.19;5013673;28;98386;-54
2020/12/30 03:17:50;;;;;;;1.92;1.50;;;;;;;22.89;30.07;99645.25;5012071;28;111821;-54
2020/12/30 03:20:15;;;;;;;1.70;1.40;;;;;;;22.88;30.14;99646.19;5016227;28;97480;-54
2020/12/30 03:22:41;;;;;;;1.95;1.70;;;;;;;22.87;30.12;99644.50;5014703;28;97169;-54
2020/12/30 03:25:06;;;;;;;1.92;1.52;;;;;;;22.89;30.21;99647.03;4980510;28;112669;-54
2020/12/30 03:27:35;;;;;;;1.48;1.38;;;;;;;22.88;30.00;99646.19;4994190;28;100615;-53
2020/12/30 03:30:07;;;;;;;1.63;1.50;;;;;;;22.88;30.32;99646.19;4997515;28;104791;-53
2020/12/30 03:32:33;;;;;;;1.63;1.30;;;;;;;22.88;30.39;99648.84;5009805;28;97644;-54
2020/12/30 03:34:58;;;;;;;1.58;1.40;;;;;;;22.88;30.27;99645.34;5013704;28;111798;-54
2020/12/30 03:37:24;;;;;;;1.35;1.20;;;;;;;22.89;29.92;99647.91;5014862;28;110345;-54
2020/12/30 03:39:49;;;;;;;1.80;1.55;;;;;;;22.89;30.11;99647.91;4996467;28;127387;-53
2020/12/30 03:42:15;;;;;;;1.80;1.50;;;;;;;22.88;30.08;99640.88;5015639;28;97186;-54
2020/12/30 03:44:40;;;;;;;1.40;1.20;;;;;;;22.89;30.36;99647.03;4991686;28;113165;-54
2020/12/30 03:47:06;;;;;;;1.60;1.40;;;;;;;22.89;30.13;99644.38;4995550;28;96803;-54
2020/12/30 03:49:33;;;;;;;1.60;1.40;;;;;;;22.89;30.30;99652.38;4995529;28;97553;-53
2020/12/30 03:51:59;;;;;;;2.05;1.60;;;;;;;22.89;30.13;99652.38;4997710;28;97347;-54
2020/12/30 03:54:34;;;;;;;1.80;1.60;;;;;;;22.88;30.08;99650.66;5014689;28;96747;-53
2020/12/30 03:56:59;;;;;;;1.98;1.50;;;;;;;22.88;30.38;99648.84;4977525;28;111103;-54
2020/12/30 03:59:24;;;;;;;1.50;1.40;;;;;;;22.88;30.09;99662.16;4996472;28;126977;-53
2020/12/30 04:01:50;;;;;;;1.58;1.40;;;;;;;22.88;30.08;99661.31;5014778;28;101810;-54
2020/12/30 04:04:15;;;;;;;2.00;1.58;;;;;;;22.87;30.25;99652.47;5014364;28;111987;-54
2020/12/30 04:06:42;;;;;;;1.60;1.38;;;;;;;22.88;30.32;99656.84;4997001;28;111682;-54
2020/12/30 04:09:07;;;;;;;1.77;1.50;;;;;;;22.88;29.89;99653.31;5011528;28;127068;-53
2020/12/30 04:11:33;;;;;;;1.75;1.50;;;;;;;22.88;30.11;99645.34;5015067;28;97198;-54
2020/12/30 04:13:58;;;;;;;1.52;1.23;;;;;;;22.88;29.98;99651.50;4996208;28;112025;-53
2020/12/30 04:16:24;;;;;;;1.70;1.48;;;;;;;22.88;30.30;99654.16;5013092;28;111808;-54
2020/12/30 04:18:50;;;;;;;1.95;1.50;;;;;;;22.88;30.05;99654.16;5013675;28;97433;-53
2020/12/30 04:21:22;;;;;;;1.58;1.30;;;;;;;22.88;30.00;99654.16;5014109;28;98731;-53
2020/12/30 04:23:51;;;;;;;1.60;1.50;;;;;;;22.90;29.98;99667.38;4996759;28;96717;-54
2020/12/30 04:26:17;;;;;;;1.73;1.33;;;;;;;22.89;29.88;99657.69;5015675;28;97066;-54
2020/12/30 04:28:43;;;;;;;1.60;1.33;;;;;;;22.90;29.93;99654.09;5014908;28;97588;-53
2020/12/30 04:31:09;;;;;;;1.80;1.27;;;;;;;22.90;30.11;99654.94;4995469;28;126835;-53
2020/12/30 04:33:35;;;;;;;1.52;1.40;;;;;;;22.90;29.93;99656.75;4996140;28;96696;-54
2020/12/30 04:36:00;;;;;;;1.65;1.20;;;;;;;22.90;29.95;99656.75;4995344;28;111664;-54
2020/12/30 04:38:26;;;;;;;1.55;1.27;;;;;;;22.90;30.01;99656.75;5013392;28;127393;-54
2020/12/30 04:40:56;;;;;;;1.58;1.35;;;;;;;22.90;30.49;99657.59;5010800;28;122980;-53
2020/12/30 04:43:21;;;;;;;1.70;1.35;;;;;;;22.90;30.11;99657.59;4979919;28;97563;-53
2020/12/30 04:45:47;;;;;;;1.33;1.23;;;;;;;22.90;30.04;99656.75;5011058;28;112979;-54
2020/12/30 04:48:12;;;;;;;2.22;1.50;;;;;;;22.91;29.87;99661.13;5009719;28;126853;-53
2020/12/30 04:50:37;;;;;;;1.45;1.23;;;;;;;22.90;30.21;99667.38;4995684;28;124369;-53
2020/12/30 04:53:03;;;;;;;1.63;1.30;;;;;;;22.90;29.99;99676.22;4997153;28;96911;-53
2020/12/30 04:55:30;;;;;;;1.90;1.45;;;;;;;22.91;30.11;99671.78;4962723;28;110609;-54
2020/12/30 04:58:06;;;;;;;1.60;1.40;;;;;;;22.89;30.14;99670.97;4995903;28;120978;-54
2020/12/30 05:00:33;;;;;;;1.77;1.40;;;;;;;22.90;30.12;99672.69;5014675;28;98429;-53
2020/12/30 05:03:00;;;;;;;3.25;1.60;;;;;;;22.90;29.85;99678.03;4996783;28;96877;-53
2020/12/30 05:05:25;;;;;;;1.60;1.20;;;;;;;22.90;29.91;99680.69;4980734;28;96866;-54
2020/12/30 05:07:51;;;;;;;2.35;1.40;;;;;;;22.90;29.85;99683.34;4978430;28;127463;-53
2020/12/30 05:10:16;;;;;;;1.90;1.30;;;;;;;22.89;29.88;99679.81;4989974;28;127070;-53
2020/12/30 05:12:42;;;;;;;1.70;1.40;;;;;;;22.89;30.07;99682.50;5013922;28;112114;-53
2020/12/30 05:15:08;;;;;;;1.52;1.17;;;;;;;22.89;29.98;99690.47;4979053;28;96978;-54
2020/12/30 05:17:34;;;;;;;1.30;1.20;;;;;;;22.89;30.06;99690.47;5012299;28;97520;-54
2020/12/30 05:19:59;;;;;;;1.77;1.35;;;;;;;22.89;30.11;99692.25;4994670;28;113530;-54
2020/12/30 05:22:24;;;;;;;1.55;1.40;;;;;;;22.89;29.86;99686.94;4992244;28;112815;-53
2020/12/30 05:24:50;;;;;;;1.30;1.20;;;;;;;22.90;29.85;99699.28;5011575;28;111754;-53
2020/12/30 05:27:16;;;;;;;1.60;1.42;;;;;;;22.88;29.88;99696.72;4994220;28;97450;-54
2020/12/30 05:29:44;;;;;;;1.40;1.30;;;;;;;22.89;30.09;99702.88;4990100;28;103900;-54
2020/12/30 05:32:09;;;;;;;1.70;1.40;;;;;;;22.89;29.67;99706.41;4993801;28;97117;-53
2020/12/30 05:34:35;;;;;;;1.40;1.10;;;;;;;22.88;29.99;99707.34;5010064;28;105484;-53
2020/12/30 05:37:00;;;;;;;1.70;1.30;;;;;;;22.88;29.93;99710.00;4995131;28;99853;-53
2020/12/30 05:39:31;;;;;;;1.40;1.17;;;;;;;22.88;29.62;99715.31;5013361;28;100630;-53
2020/12/30 05:42:15;;;;;;;1.40;1.20;;;;;;;22.87;29.96;99715.41;5005655;28;97171;-53
2020/12/30 05:44:41;;;;;;;1.35;1.23;;;;;;;22.88;29.73;99714.47;5007218;28;96957;-53
2020/12/30 05:47:14;;;;;;;1.90;1.40;;;;;;;22.88;29.99;99719.78;5011654;28;97820;-53
2020/12/30 05:49:40;;;;;;;1.92;1.42;;;;;;;22.87;29.94;99718.94;5011959;28;97234;-54
2020/12/30 05:52:18;;;;;;;1.73;1.40;;;;;;;22.86;29.82;99719.88;4995908;28;97075;-53
2020/12/30 05:54:52;;;;;;;1.80;1.38;;;;;;;22.88;29.75;99719.78;5014283;28;96675;-54
2020/12/30 05:57:30;;;;;;;1.80;1.30;;;;;;;22.88;29.88;99725.13;4995713;28;97521;-53
2020/12/30 06:00:09;;;;;;;1.40;1.23;;;;;;;22.87;29.90;99721.59;5014181;28;97301;-54
2020/12/30 06:02:41;;;;;;;1.60;1.50;;;;;;;22.88;30.01;99725.13;5011987;28;96770;-54
2020/12/30 06:05:08;;;;;;;1.40;1.30;;;;;;;22.88;30.09;99722.44;4995611;28;98076;-54
2020/12/30 06:07:42;;;;;;;1.52;1.15;;;;;;;22.87;29.89;99718.94;4993663;28;97463;-53
2020/12/30 06:10:08;;;;;;;1.77;1.58;;;;;;;22.89;29.68;99721.50;4979921;28;97188;-54
2020/12/30 06:12:38;;;;;;;1.60;1.30;;;;;;;22.88;29.85;99725.97;5017220;28;103909;-53
2020/12/30 06:15:03;;;;;;;2.15;1.30;;;;;;;22.89;29.95;99725.03;4999644;28;96877;-54
2020/12/30 06:17:29;;;;;;;1.50;1.25;;;;;;;22.89;29.67;99732.13;5014530;28;125642;-54
2020/12/30 06:19:55;;;;;;;1.60;1.40;;;;;;;22.90;29.96;99733.84;4999303;28;97318;-54
2020/12/30 06:22:21;;;;;;;1.58;1.20;;;;;;;22.90;29.95;99741.84;4981179;28;96813;-54
2020/12/30 06:24:54;;;;;;;1.92;1.40;;;;;;;22.89;29.89;99738.31;4982944;28;96812;-53
2020/12/30 06:27:20;;;;;;;1.40;1.20;;;;;;;22.89;29.92;99737.44;5016118;28;97560;-53
2020/12/30 06:29:46;;;;;;;1.40;1.10;;;;;;;22.89;29.80;99735.66;5015085;28;97090;-54
2020/12/30 06:32:24;;;;;;;1.27;1.10;;;;;;;22.88;29.92;99739.25;4982124;28;96892;-53
2020/12/30 06:34:49;;;;;;;1.90;1.30;;;;;;;22.90;29.59;99750.66;4997892;28;96964;-54
2020/12/30 06:37:15;;;;;;;1.35;1.25;;;;;;;22.90;30.02;99749.81;5013305;28;124883;-54
2020/12/30 06:39:40;;;;;;;1.33;1.20;;;;;;;22.90;29.78;99745.34;4981727;28;126895;-53
2020/12/30 06:42:06;;;;;;;1.40;1.30;;;;;;;22.90;29.60;99755.13;4998523;28;111940;-53
2020/12/30 06:44:41;;;;;;;1.70;1.23;;;;;;;22.90;29.79;99763.09;5012388;28;97030;-53
2020/12/30 06:47:14;;;;;;;1.80;1.50;;;;;;;22.89;29.82;99758.72;5013769;28;97483;-53
2020/12/30 06:49:40;;;;;;;1.80;1.27;;;;;;;22.89;29.55;99764.91;4997212;28;97374;-53
2020/12/30 06:52:35;;;;;;;1.42;1.13;;;;;;;22.87;29.63;99774.78;5015830;28;111925;-54
2020/12/30 06:55:00;;;;;;;1.38;1.20;;;;;;;22.89;29.49;99772.88;5002145;28;96949;-54
2020/12/30 06:57:38;;;;;;;1.98;1.23;;;;;;;22.88;29.60;99786.25;5015807;28;126686;-54
2020/12/30 07:00:33;;;;;;;1.60;1.40;;;;;;;22.87;29.58;99781.88;4998058;28;97455;-54
2020/12/30 07:03:15;;;;;;;1.42;1.33;;;;;;;22.86;29.89;99788.16;5014837;28;96761;-54
2020/12/30 07:05:40;;;;;;;1.88;1.17;;;;;;;22.88;29.62;99794.25;4982988;28;97509;-54
2020/12/30 07:08:07;;;;;;;1.33;1.23;;;;;;;22.87;29.77;99792.50;4998393;28;97481;-53
2020/12/30 07:10:33;;;;;;;1.70;1.23;;;;;;;22.86;29.81;99810.28;4991665;28;126512;-53
2020/12/30 07:12:58;;;;;;;2.00;1.42;;;;;;;22.87;29.62;99803.16;4996512;28;107767;-53
2020/12/30 07:15:25;;;;;;;2.13;1.40;;;;;;;22.88;29.60;99810.19;4997400;28;97864;-53
2020/12/30 07:17:50;;;;;;;3.20;1.33;;;;;;;22.88;29.88;99813.69;5015031;28;102516;-55
2020/12/30 07:20:22;;;;;;;8.07;6.47;;;;;;;22.85;29.31;99811.19;4997223;28;119570;-55
2020/12/30 07:22:48;;;;;;;4.95;3.17;;;;;;;22.81;29.50;99810.50;5014342;28;97126;-54
2020/12/30 07:25:17;;;;;;;5.95;3.15;;;;;;;22.80;29.34;99813.28;4980137;28;97139;-55
2020/12/30 07:27:42;;;;;;;6.20;3.00;;;;;;;22.80;29.46;99818.59;4973974;28;126779;-55
2020/12/30 07:30:08;;;;;;;2.90;2.60;;;;;;;22.78;29.59;99816.00;5006216;28;126575;-55
2020/12/30 07:32:33;;;;;;;4.97;2.58;;;;;;;22.79;29.40;99827.50;4979520;28;97271;-55
2020/12/30 07:35:00;;;;;;;3.35;2.40;;;;;;;22.79;29.47;99823.03;4975080;28;97839;-54
2020/12/30 07:37:25;;;;;;;2.67;2.35;;;;;;;22.81;29.56;99822.94;4990660;28;99688;-54
2020/12/30 07:39:51;;;;;;;3.65;2.25;;;;;;;22.81;29.57;99828.28;5015657;28;97155;-54
2020/12/30 07:42:19;;;;;;;3.67;2.20;;;;;;;22.82;29.47;99827.34;4997852;28;113086;-55
2020/12/30 07:44:51;;;;;;;2.33;1.88;;;;;;;22.82;29.39;99832.66;5016107;28;96816;-55
2020/12/30 07:47:17;;;;;;;4.38;1.90;;;;;;;22.82;29.69;99835.31;5016855;28;97557;-55
2020/12/30 07:49:42;;;;;;;4.32;2.00;;;;;;;22.83;29.57;99844.16;4995255;28;97141;-55
2020/12/30 07:52:08;;;;;;;3.58;1.90;;;;;;;22.82;29.45;99843.28;4997692;28;112357;-54
2020/12/30 07:54:34;;;;;;;3.72;1.95;;;;;;;22.83;29.55;99855.63;4991363;28;97619;-55
2020/12/30 07:57:01;;;;;;;4.32;1.92;;;;;;;22.84;29.21;99851.19;5006491;28;97613;-54
2020/12/30 07:59:27;;;;;;;4.10;1.90;;;;;;;22.84;29.45;99862.66;5015965;28;97151;-55
2020/12/30 08:01:57;;;;;;;2.50;1.80;;;;;;;22.83;29.43;99863.59;4997749;28;96963;-55
2020/12/30 08:04:23;;;;;;;4.78;3.03;;;;;;;22.83;29.57;99860.09;5029745;22;96923;-54
2020/12/30 08:06:48;;;;;;;3.83;1.90;;;;;;;22.83;29.71;99866.25;4997914;28;97450;-54
2020/12/30 08:09:14;;;;;;;2.92;1.85;;;;;;;22.85;29.80;99868.84;4998223;28;98156;-54
2020/12/30 08:11:49;;;;;;;4.03;2.20;;;;;;;22.84;29.63;99873.31;4988817;28;96905;-54
2020/12/30 08:14:17;;;;;;;3.08;2.00;;;;;;;22.85;29.62;99869.69;4982208;28;97000;-54
2020/12/30 08:16:55;;;;;;;2.20;2.00;;;;;;;22.84;29.53;99875.13;4998529;28;119626;-54
2020/12/30 08:19:28;;;;;;;3.53;2.20;;;;;;;22.84;29.49;99881.28;5002200;28;97396;-54
2020/12/30 08:22:02;;;;;;;4.28;1.90;;;;;;;22.84;29.95;99881.28;5004285;28;107002;-54
2020/12/30 08:24:28;;;;;;;;;;;;;;;22.84;29.63;99883.94;5003126;28;96868;-54
2020/12/30 08:26:54;;;;;;;3.05;2.00;;;;;;;22.88;29.47;99888.16;5003671;28;97458;-54
2020/12/30 08:29:19;;;;;;;3.00;2.00;;;;;;;22.88;29.69;99887.28;5002696;28;96879;-54
2020/12/30 08:31:45;;;;;;;3.22;1.88;;;;;;;22.87;29.66;99883.78;5005742;28;112055;-54
2020/12/30 08:34:10;;;;;;;3.13;2.10;;;;;;;22.86;29.70;99894.50;5002441;28;107381;-54
2020/12/30 08:36:39;;;;;;;5.20;2.10;;;;;;;22.86;29.88;99900.66;4975538;28;103945;-56
2020/12/30 08:39:04;;;;;;;2.92;1.88;;;;;;;22.86;29.87;99903.31;4964709;28;100746;-56
2020/12/30 08:41:30;;;;;;;3.03;1.92;;;;;;;22.85;29.90;99904.25;4978871;28;109255;-56
2020/12/30 08:43:56;;;;;;;2.22;1.80;;;;;;;22.86;29.82;99905.97;5016178;28;96721;-56
2020/12/30 08:46:25;;;;;;;3.67;2.28;;;;;;;22.86;29.86;99903.31;4980886;28;97553;-56
2020/12/30 08:48:51;;;;;;;2.40;1.70;;;;;;;22.87;29.95;99901.50;4995242;28;97365;-56
2020/12/30 08:51:30;;;;;;;2.58;1.90;;;;;;;22.86;30.12;99908.66;5005140;28;96736;-56
2020/12/30 08:53:55;;;;;;;2.60;1.63;;;;;;;22.88;29.92;99908.56;5004076;28;97274;-56
2020/12/30 08:56:21;;;;;;;4.18;3.88;;;;;;;22.87;30.08;99899.75;5037084;22;126765;-50
2020/12/30 08:58:51;;;;;;;2.83;2.00;;;;;;;22.87;29.89;99913.03;5000891;28;98326;-50
2020/12/30 09:01:20;;;;;;;2.25;1.70;;;;;;;22.87;29.84;99912.16;5003384;28;96808;-50
2020/12/30 09:03:46;;;;;;;2.83;1.65;;;;;;;22.86;29.92;99919.28;5021921;28;96878;-50
2020/12/30 09:06:23;;;;;;;2.63;1.73;;;;;;;22.86;29.92;99911.31;5025471;28;97514;-50
2020/12/30 09:08:48;;;;;;;2.25;1.60;;;;;;;22.86;29.62;99918.44;4991398;28;97190;-50
2020/12/30 09:11:17;;;;;;;2.00;1.50;;;;;;;22.85;30.00;99928.19;5018573;28;112277;-50
2020/12/30 09:13:43;;;;;;;2.47;1.85;;;;;;;22.85;29.81;99930.84;5019570;28;96784;-54
2020/12/30 09:16:10;;;;;;;1.77;1.40;;;;;;;22.86;29.58;99934.38;5016555;28;97368;-54
2020/12/30 09:18:36;;;;;;;3.67;2.10;;;;;;;22.85;29.52;99933.50;5004011;28;97172;-54
2020/12/30 09:21:01;;;;;;;1.88;1.55;;;;;;;22.86;29.89;99939.69;5019488;28;97267;-54
2020/12/30 09:23:27;;;;;;;2.72;1.77;;;;;;;22.85;29.81;99938.81;5016418;28;111729;-54
2020/12/30 09:25:53;;;;;;;2.13;1.60;;;;;;;22.85;29.96;99941.47;5019893;28;97848;-54
2020/12/30 09:28:19;;;;;;;1.63;1.33;;;;;;;22.85;29.80;99946.78;5024559;28;97278;-54
2020/12/30 09:30:45;;;;;;;2.55;1.83;;;;;;;22.85;29.89;99936.16;5019178;28;96746;-54
2020/12/30 09:33:15;;;;;;;3.30;2.30;;;;;;;22.85;29.51;99943.28;5022379;28;96799;-54
2020/12/30 09:35:41;;;;;;;2.15;1.70;;;;;;;22.86;29.55;99945.00;5018959;28;97342;-54
2020/12/30 09:38:06;;;;;;;1.85;1.33;;;;;;;22.85;29.58;99946.78;5024688;28;97853;-54
2020/12/30 09:40:39;;;;;;;1.80;1.60;;;;;;;22.85;29.80;99948.59;5022880;28;113035;-54
2020/12/30 09:43:17;;;;;;;2.78;2.35;;;;;;;22.85;29.64;99957.44;5027192;28;96801;-54
2020/12/30 09:45:43;;;;;;;2.53;1.50;;;;;;;22.86;29.75;99947.69;5023738;28;97458;-54
2020/12/30 09:48:12;;;;;;;1.83;1.42;;;;;;;22.85;29.80;99952.09;5008651;28;99404;-54
2020/12/30 09:50:38;;;;;;;1.70;1.40;;;;;;;22.85;29.97;99954.78;5022752;28;96809;-54
2020/12/30 09:53:03;;;;;;;2.45;2.25;;;;;;;22.84;29.80;99961.03;5027384;28;96742;-54
2020/12/30 09:55:29;;;;;;;1.77;1.33;;;;;;;22.83;29.71;99961.97;5025280;28;97542;-54
2020/12/30 09:57:55;;;;;;;2.08;1.50;;;;;;;22.83;29.53;99956.66;5019229;28;126594;-54
2020/12/30 10:00:20;;;;;;;1.60;1.48;;;;;;;22.83;29.81;99964.63;5005166;28;96983;-54
2020/12/30 10:02:46;;;;;;;2.53;1.50;;;;;;;22.83;29.44;99954.00;5005854;28;111796;-54
2020/12/30 10:05:11;;;;;;;1.58;1.23;;;;;;;22.83;29.51;99958.47;5034544;28;97718;-54
2020/12/30 10:07:37;;;;;;;1.85;1.33;;;;;;;22.84;29.77;99962.84;5019197;28;126468;-54
2020/12/30 10:10:02;;;;;;;1.58;1.40;;;;;;;22.84;29.44;99965.50;5036411;28;96711;-54
2020/12/30 10:12:28;;;;;;;2.58;1.50;;;;;;;22.83;29.59;99967.28;5035391;28;104644;-54
2020/12/30 10:14:53;;;;;;;2.72;1.48;;;;;;;22.82;29.31;99965.59;5037105;28;97983;-54
2020/12/30 10:17:20;;;;;;;1.48;1.15;;;;;;;22.83;29.51;99967.28;5053384;22;121721;-50
2020/12/30 10:19:45;;;;;;;2.00;1.40;;;;;;;22.83;29.51;99967.28;5037227;28;96690;-50
2020/12/30 10:22:11;;;;;;;1.67;1.58;;;;;;;22.83;29.62;99977.91;5038397;28;96672;-50
2020/12/30 10:24:37;;;;;;;2.28;1.40;;;;;;;22.84;29.50;99973.50;5037574;28;97501;-50
2020/12/30 10:27:03;;;;;;;1.45;1.35;;;;;;;22.83;29.59;99969.09;5037347;28;104647;-50
2020/12/30 10:29:30;;;;;;;6.65;1.75;;;;;;;22.83;29.47;99974.41;5037377;28;96820;-53
2020/12/30 10:31:56;;;;;;;2.80;1.30;;;;;;;22.81;29.31;99980.66;5020315;28;96907;-53
2020/12/30 10:34:22;;;;;;;2.47;1.42;;;;;;;22.82;29.70;99981.53;5034604;28;120876;-54
2020/12/30 10:36:47;;;;;;;2.20;1.33;;;;;;;22.81;29.77;99983.31;5018620;28;97383;-54
2020/12/30 10:39:13;;;;;;;2.00;1.40;;;;;;;22.81;29.57;99983.31;5037401;28;111950;-54
2020/12/30 10:41:40;;;;;;;1.90;1.40;;;;;;;22.81;29.79;99980.66;5038321;28;96859;-54
2020/12/30 10:44:05;;;;;;;1.77;1.33;;;;;;;22.82;29.59;99981.53;5024400;28;97468;-54
2020/12/30 10:46:30;;;;;;;2.22;1.35;;;;;;;22.82;29.54;99994.84;5037393;28;98338;-54
2020/12/30 10:48:56;;;;;;;1.85;1.42;;;;;;;22.83;29.54;99979.72;5015773;28;112004;-54
2020/12/30 10:51:21;;;;;;;1.92;1.40;;;;;;;22.83;29.32;99985.06;5037602;28;96731;-54
2020/12/30 10:53:47;;;;;;;1.88;1.23;;;;;;;22.83;29.45;99979.72;5035353;28;126861;-54
2020/12/30 10:56:13;;;;;;;3.08;1.40;;;;;;;22.83;29.59;99983.25;5033703;27;97188;-54
2020/12/30 10:58:38;;;;;;;2.60;1.52;;;;;;;22.83;29.51;99985.91;5016344;28;96847;-54
2020/12/30 11:01:08;;;;;;;1.88;1.30;;;;;;;22.84;29.46;99984.13;5015200;28;111981;-54
2020/12/30 11:03:33;;;;;;;1.85;1.40;;;;;;;22.84;29.29;99987.63;5010887;28;98658;-54
2020/12/30 11:05:59;;;;;;;1.73;1.10;;;;;;;22.85;29.39;99991.13;5019930;28;97196;-54
2020/12/30 11:08:26;;;;;;;2.33;1.30;;;;;;;22.84;29.68;99986.78;5037948;28;96893;-55
2020/12/30 11:10:51;;;;;;;2.55;1.38;;;;;;;22.84;29.27;99987.63;5034493;28;96854;-55
2020/12/30 11:13:17;;;;;;;2.38;1.23;;;;;;;22.85;29.18;99980.50;5014431;28;125487;-55
2020/12/30 11:15:42;;;;;;;2.92;1.23;;;;;;;22.85;29.53;99983.16;5036757;28;97263;-55
2020/12/30 11:18:08;;;;;;;1.50;1.10;;;;;;;22.84;29.08;99984.97;5032771;28;112698;-55
2020/12/30 11:20:33;;;;;;;1.75;1.40;;;;;;;22.85;29.45;99988.47;5030077;28;96686;-55
2020/12/30 11:22:59;;;;;;;1.90;1.77;;;;;;;22.84;29.26;99984.97;5032124;28;117871;-55
2020/12/30 11:25:24;;;;;;;2.17;1.52;;;;;;;22.84;29.42;99990.28;5033577;28;97266;-55
2020/12/30 11:27:51;;;;;;;1.88;1.20;;;;;;;22.84;29.30;99984.13;5032532;28;99975;-55
2020/12/30 11:30:17;;;;;;;1.85;1.05;;;;;;;22.83;29.22;99987.72;5024970;28;98499;-55